Hot Springs, Montana
Current Conditions -  °F | °C
As of 2:53 AM on Sunday 25 Jan 2015 (Local Time) from KMLP Reporting Station
Moderate Fog Moderate Fog  
Wind Chill: 34°   Ceiling: 100
Heat Index: 39°   Visibility: 0.25mi
Dew Point: 39°   Wind: 7mph
Humidity: 100%   Direction: NA
Pressure: 30.23"   Gusts: 21mph
Location:  47.61°N, 114.67°W
Report Text: KMLP 250953Z AUTO VRB06G18KT 1/4SM FG VV001 04/04 A3023 RMK AO2 SLP199 T00390039
Loading
Personal Weather Stations






























Interactive Weather Map New forecast layout! Learn more

10-Day Weather Forecast

Advertisements
Track Severe Weather on mobile